AirNav   Air Wisconsin Up To $57,000 Bonus
 
 745 users online  

0MA1 Massachusetts General Hospital Heliport
Boston, Massachusetts, USA

GOING TO BOSTON?


FAA INFORMATION EFFECTIVE 25 FEBRUARY 2021

Location

FAA Identifier: 0MA1
Lat/Long: 42-21-49.2600N 071-04-09.2200W
42-21.821000N 071-04.153667W
42.3636833,-71.0692278
(estimated)
Elevation: 195 ft. / 59 m (estimated)
Variation: 16W (1995)
Time zone: UTC -5 (UTC -4 during Daylight Saving Time)
Zip code: 02114

Heliport Operations

Heliport use: Private use, MEDICAL USE.
Activation date: 03/1998
Control tower: no
ARTCC: BOSTON CENTER
FSS: BRIDGEPORT FLIGHT SERVICE STATION
NOTAMs facility: FDC (NOTAM-D service not available)
Attendance: CONTINUOUS
Wind indicator: yes
Segmented circle: no

Heliport Communications

WX ASOS at BOS (2.8 nm E): 135.0 (617-567-5762)
WX ASOS at OWD (11 nm SW): 119.95 (781-762-4314)
WX ASOS at BED (12 nm NW): 124.6 (781-274-9733)
WX ASOS at BVY (15 nm NE): 119.2 (978-921-5042)

Nearby radio navigation aids

VOR radial/distance  VOR name  Freq  Var
BOSr292/3.6BOSTON VOR/DME112.7016W
LWMr192/22.6LAWRENCE VOR/DME112.5015W
MHTr171/33.1MANCHESTER VOR/DME114.4015W

 
NDB name  Hdg/Dist  Freq  Var  ID
STOGE025/14.939715WOW --- .--

Heliport Services

Runway Information

Helipad H1

Dimensions: 60 x 60 ft. / 18 x 18 m
Surface: concrete
Latitude: 42-21.821000N
Longitude: 071-04.153667W
Elevation: 195.0 ft.
Traffic pattern: leftleft

Heliport Ownership and Management from official FAA records

Ownership: Privately-owned
Owner: GENERAL HOSPITAL CORPORATION
55 FRUIT STREET
BOSTON, MA 02114
Phone 617-726-3387
Manager: ROBERT SEGER, EMERGENCY MEDICINE
55 FRUIT ST
BOSTON, MA 02114
Phone 617-726-3387

Additional Remarks

ROOFTOP.
FOR CD CTC BOSTON APCH AT 603-594-5554.

Instrument Procedures

There are no published instrument procedures at 0MA1.

Some nearby airports with instrument procedures:

KBOS - General Edward Lawrence Logan International Airport (3 nm E)
KOWD - Norwood Memorial Airport (11 nm SW)
KBED - Laurence G Hanscom Field Airport (12 nm NW)
KBVY - Beverly Regional Airport (15 nm NE)
6B6 - Minute Man Air Field (21 nm W)
 
Loc | Ops | Rwys | IFR | FBO | Links
Com | Nav | Svcs | Stats | Notes
Area around 0MA1 (Massachusetts General Hospital Heliport)
 
Road maps at: MapQuest Bing Google
 
Aerial photo
No photo
 
Sectional chart

 
Airport distance calculator
Flying to Massachusetts General Hospital Heliport? Find the distance to fly.

From to 0MA1

Sunrise and sunset
Times for 25-Feb-2021
 Local
(UTC-5)
 Zulu
(UTC)
Morning civil twilight05:5910:59
Sunrise06:2711:27
Sunset17:2822:28
Evening civil twilight17:5622:56

Current date and time
Zulu (UTC)  25-Feb-2021 12:52:02
Local (UTC-5)  25-Feb-2021 07:52:02
 
METAR
KBOS 
2nm E 
251154Z 28014G23KT 10SM FEW050 FEW180 05/M03 A2981 RMK AO2 PK WND 26029/1119 SLP093 T00501033 10083 20050 51048
KMQE 
9nm S 
251051Z AUTO 28027G34KT 03/M04 A2973 RMK AO1 PK WND 30044/1007 SLP080 T00331039
KOWD 
12nm S 
251153Z 28017G23KT 10SM CLR 06/M04 A2982 RMK AO2 PK WND 30029/1109 SLP098 T00561039 10089 20056 51052
KBED 
12nm NW 
251151Z 28010KT 10SM FEW060 05/M03 A2981 RMK AO2 PK WND 29026/1059 PRESRR SLP107 T00501033 10083 20050 51052
KBVY 
15nm NE 
251153Z 30009G21KT 10SM SCT050 BKN070 06/M03 A2979 RMK AO2 PRESRR SLP083 T00561028 10083 20056 53051
TAF
KBOS 
2nm E 
251124Z 2512/2618 29018G29KT P6SM FEW050 FM251700 29017G29KT P6SM FEW250 FM252300 29014G25KT P6SM SKC FM260200 29010G19KT P6SM SKC FM260600 29008KT P6SM FEW250
KBED 
12nm NW 
251124Z 2512/2612 28017G28KT P6SM OVC060 FM251500 29016G28KT P6SM FEW250 FM252200 29011G19KT P6SM SKC FM260100 29009KT P6SM SKC FM260300 29006KT P6SM SKC
NOTAMs
Click for the latest NOTAMs
NOTAMs are issued by the DoD/FAA and will open in a separate window not controlled by AirNav.

 

 
 

Would you like to see your business listed on this page?

 If your business provides an interesting product or service to pilots, flight crews, aircraft, or users of the Massachusetts General Hospital Heliport, you should consider listing it here.  To start the listing process, click on the button below
 
Add a business
 

Other Pages about Massachusetts General Hospital Heliport

Update a link
 
Copyright © AirNav, LLC. All rights reserved. Privacy Policy  Contact